Time;durP1;ratioP1;P1;durP2;ratioP2;P2;SDS_P1;SDS_P2;PMS_P1;PMS_P2;Temp;Humidity;BMP_temperature;BMP_pressure;BME280_temperature;BME280_humidity;BME280_pressure;Samples;Min_cycle;Max_cycle;Signal;HPM_P1;HPM_P2
2023/12/27 00:01:50;;;;;;;4.72;2.80;;;;;;;;;;4924643;29;20041;-89
2023/12/27 00:04:17;;;;;;;4.35;2.70;;;;;;;;;;4925671;29;20090;-89
2023/12/27 00:06:43;;;;;;;6.25;3.30;;;;;;;;;;4929577;29;20036;-89
2023/12/27 00:09:08;;;;;;;5.30;3.00;;;;;;;;;;4932383;29;20553;-89
2023/12/27 00:11:35;;;;;;;7.07;3.58;;;;;;;;;;4925110;29;20040;-89
2023/12/27 00:14:01;;;;;;;4.93;2.85;;;;;;;;;;4927845;29;20036;-90
2023/12/27 00:16:26;;;;;;;4.68;2.65;;;;;;;;;;4932298;28;20036;-89
2023/12/27 00:18:52;;;;;;;5.30;2.60;;;;;;;;;;4927088;29;20100;-90
2023/12/27 00:21:17;;;;;;;5.25;2.78;;;;;;;;;;4928949;29;20164;-89
2023/12/27 00:23:43;;;;;;;3.83;2.25;;;;;;;;;;4926169;29;20063;-89
2023/12/27 00:26:08;;;;;;;7.50;2.83;;;;;;;;;;4932192;29;20036;-89
2023/12/27 00:28:34;;;;;;;5.13;2.55;;;;;;;;;;4933273;29;20437;-89
2023/12/27 00:31:00;;;;;;;5.30;2.30;;;;;;;;;;4930363;29;20088;-89
2023/12/27 00:33:25;;;;;;;3.95;2.25;;;;;;;;;;4925798;29;20075;-87
2023/12/27 00:35:51;;;;;;;7.32;4.15;;;;;;;;;;4928878;29;20040;-88
2023/12/27 00:38:16;;;;;;;5.10;3.00;;;;;;;;;;4928634;29;20036;-89
2023/12/27 00:40:41;;;;;;;6.35;3.25;;;;;;;;;;4930775;29;20024;-89
2023/12/27 00:43:07;;;;;;;6.82;3.63;;;;;;;;;;4928061;28;20124;-89
2023/12/27 00:45:32;;;;;;;6.95;4.05;;;;;;;;;;4927552;29;20035;-88
2023/12/27 00:47:58;;;;;;;6.15;3.25;;;;;;;;;;4944182;29;20035;-89
2023/12/27 00:50:23;;;;;;;8.00;3.60;;;;;;;;;;4928907;29;20131;-88
2023/12/27 00:52:49;;;;;;;5.28;2.90;;;;;;;;;;4929525;29;20111;-88
2023/12/27 00:55:14;;;;;;;6.45;3.13;;;;;;;;;;4913533;29;20100;-89
2023/12/27 00:57:40;;;;;;;7.60;3.00;;;;;;;;;;4925365;29;20040;-88
2023/12/27 01:00:08;;;;;;;5.82;2.78;;;;;;;;;;4928977;29;20087;-87
2023/12/27 01:02:35;;;;;;;5.20;2.75;;;;;;;;;;4930706;29;20521;-89
2023/12/27 01:05:01;;;;;;;5.25;2.78;;;;;;;;;;4943706;29;20040;-90
2023/12/27 01:07:26;;;;;;;5.60;3.08;;;;;;;;;;4944425;29;20088;-88
2023/12/27 01:09:52;;;;;;;6.40;3.20;;;;;;;;;;4966892;29;20027;-89
2023/12/27 01:12:18;;;;;;;5.88;3.30;;;;;;;;;;4943072;29;20039;-89
2023/12/27 01:14:43;;;;;;;4.65;3.05;;;;;;;;;;4955505;29;20444;-89
2023/12/27 01:17:09;;;;;;;5.72;3.03;;;;;;;;;;4955130;29;20046;-89
2023/12/27 01:19:35;;;;;;;4.78;2.92;;;;;;;;;;4937280;29;20047;-89
2023/12/27 01:22:01;;;;;;;4.25;2.75;;;;;;;;;;4937988;29;20059;-90
2023/12/27 01:24:26;;;;;;;6.05;2.70;;;;;;;;;;4937369;29;20040;-88
2023/12/27 01:26:52;;;;;;;5.32;3.00;;;;;;;;;;4938879;29;20052;-89
2023/12/27 01:29:17;;;;;;;6.43;2.90;;;;;;;;;;4936845;29;20040;-90
2023/12/27 01:31:44;;;;;;;6.32;2.78;;;;;;;;;;4932816;29;20553;-88
2023/12/27 01:34:09;;;;;;;6.10;2.83;;;;;;;;;;4948361;28;20067;-90
2023/12/27 01:36:35;;;;;;;3.70;2.60;;;;;;;;;;4924475;29;20036;-89
2023/12/27 01:39:01;;;;;;;4.97;2.92;;;;;;;;;;4945499;28;20032;-90
2023/12/27 01:41:26;;;;;;;6.40;3.05;;;;;;;;;;4926943;29;20039;-89
2023/12/27 01:43:52;;;;;;;5.22;2.90;;;;;;;;;;4933379;29;20040;-89
2023/12/27 01:46:18;;;;;;;4.50;2.40;;;;;;;;;;4929170;29;20036;-89
2023/12/27 01:48:44;;;;;;;6.97;2.75;;;;;;;;;;4946400;28;20047;-89
2023/12/27 01:51:12;;;;;;;4.45;2.47;;;;;;;;;;4946199;29;20036;-89
2023/12/27 01:53:38;;;;;;;4.38;2.38;;;;;;;;;;4932343;29;20079;-89
2023/12/27 01:56:04;;;;;;;3.90;2.30;;;;;;;;;;4930128;29;20038;-89
2023/12/27 01:58:30;;;;;;;5.00;2.40;;;;;;;;;;4927235;29;20035;-89
2023/12/27 02:00:56;;;;;;;4.88;2.40;;;;;;;;;;4917263;29;20032;-91
2023/12/27 02:03:25;;;;;;;5.15;2.53;;;;;;;;;;4931938;29;20045;-90
2023/12/27 02:05:53;;;;;;;5.20;2.47;;;;;;;;;;4912018;29;20052;-90
2023/12/27 02:08:19;;;;;;;5.32;2.65;;;;;;;;;;4940008;29;20145;-90
2023/12/27 02:10:48;;;;;;;5.43;2.85;;;;;;;;;;4931085;29;20410;-91
2023/12/27 02:13:13;;;;;;;4.28;2.25;;;;;;;;;;4928100;29;20028;-90
2023/12/27 02:15:40;;;;;;;4.97;2.38;;;;;;;;;;4928147;29;20431;-90
2023/12/27 02:18:07;;;;;;;4.68;2.63;;;;;;;;;;4940815;29;20043;-90
2023/12/27 02:20:33;;;;;;;3.90;2.40;;;;;;;;;;4929101;29;20032;-90
2023/12/27 02:23:02;;;;;;;4.07;2.58;;;;;;;;;;4944232;29;20038;-89
2023/12/27 02:25:28;;;;;;;5.53;2.50;;;;;;;;;;4933075;29;20099;-90
2023/12/27 02:27:54;;;;;;;7.95;2.47;;;;;;;;;;4928122;29;20043;-90
2023/12/27 02:30:21;;;;;;;5.85;2.35;;;;;;;;;;4926560;29;20041;-90
2023/12/27 02:32:48;;;;;;;4.85;2.28;;;;;;;;;;4931055;29;20040;-90
2023/12/27 02:35:13;;;;;;;4.72;2.45;;;;;;;;;;4917954;29;20169;-89
2023/12/27 02:37:39;;;;;;;4.32;2.30;;;;;;;;;;4944697;29;20663;-89
2023/12/27 02:40:05;;;;;;;3.97;2.33;;;;;;;;;;4922915;29;20384;-90
2023/12/27 02:42:31;;;;;;;4.15;2.47;;;;;;;;;;4919485;29;20042;-90
2023/12/27 02:44:57;;;;;;;3.53;2.15;;;;;;;;;;4926582;29;20127;-89
2023/12/27 02:47:22;;;;;;;5.13;2.40;;;;;;;;;;4932481;29;20032;-89
2023/12/27 02:49:48;;;;;;;6.60;2.40;;;;;;;;;;4941438;28;20040;-89
2023/12/27 02:52:13;;;;;;;3.72;2.08;;;;;;;;;;4918514;29;20077;-89
2023/12/27 02:54:39;;;;;;;3.60;2.13;;;;;;;;;;4926682;29;20036;-90
2023/12/27 02:57:06;;;;;;;5.32;2.05;;;;;;;;;;4922817;29;20028;-90
2023/12/27 02:59:32;;;;;;;3.55;2.10;;;;;;;;;;4931214;29;20391;-89
2023/12/27 03:01:57;;;;;;;4.70;2.13;;;;;;;;;;4925781;29;20044;-90
2023/12/27 03:04:23;;;;;;;4.45;2.17;;;;;;;;;;4930520;29;20036;-89
2023/12/27 03:06:50;;;;;;;5.15;2.40;;;;;;;;;;4930968;29;20032;-90
2023/12/27 03:09:16;;;;;;;4.60;2.45;;;;;;;;;;4925254;29;20036;-90
2023/12/27 03:11:41;;;;;;;3.35;2.30;;;;;;;;;;4929618;29;20451;-90
2023/12/27 03:14:07;;;;;;;3.42;2.20;;;;;;;;;;4942746;29;20028;-90
2023/12/27 03:16:32;;;;;;;4.10;2.20;;;;;;;;;;4925986;29;20040;-90
2023/12/27 03:18:59;;;;;;;4.10;1.95;;;;;;;;;;4943017;29;20164;-89
2023/12/27 03:21:26;;;;;;;4.00;2.20;;;;;;;;;;4921498;29;20124;-89
2023/12/27 03:23:52;;;;;;;4.15;2.33;;;;;;;;;;4929556;29;20501;-89
2023/12/27 03:26:17;;;;;;;3.15;2.15;;;;;;;;;;4928341;29;20183;-90
2023/12/27 03:28:44;;;;;;;5.18;2.13;;;;;;;;;;4940902;28;20402;-89
2023/12/27 03:31:09;;;;;;;4.55;2.40;;;;;;;;;;4927370;29;20036;-89
2023/12/27 03:33:35;;;;;;;4.95;2.25;;;;;;;;;;4924049;29;20028;-89
2023/12/27 03:36:01;;;;;;;4.55;2.08;;;;;;;;;;4926227;29;20036;-89
2023/12/27 03:38:26;;;;;;;4.15;1.85;;;;;;;;;;4925092;29;20040;-89
2023/12/27 03:40:52;;;;;;;5.32;2.30;;;;;;;;;;4932270;29;20084;-88
2023/12/27 03:43:18;;;;;;;4.05;2.38;;;;;;;;;;4923801;29;20031;-89
2023/12/27 03:45:45;;;;;;;4.22;2.15;;;;;;;;;;4939214;29;20135;-89
2023/12/27 03:48:11;;;;;;;4.47;2.30;;;;;;;;;;4938620;29;20028;-89
2023/12/27 03:50:36;;;;;;;3.70;2.20;;;;;;;;;;4925921;29;20042;-89
2023/12/27 03:53:02;;;;;;;4.00;2.45;;;;;;;;;;4928700;29;20035;-89
2023/12/27 03:55:28;;;;;;;5.15;2.10;;;;;;;;;;4923572;29;20044;-90
2023/12/27 03:57:53;;;;;;;3.78;2.13;;;;;;;;;;4922016;29;20036;-90
2023/12/27 04:00:20;;;;;;;3.15;2.00;;;;;;;;;;4929774;29;20026;-90
2023/12/27 04:02:46;;;;;;;5.88;2.10;;;;;;;;;;4926311;29;20040;-89
2023/12/27 04:05:13;;;;;;;4.70;2.33;;;;;;;;;;4914450;29;20051;-90
2023/12/27 04:07:38;;;;;;;4.32;2.45;;;;;;;;;;4941601;29;20152;-89
2023/12/27 04:10:05;;;;;;;5.25;2.10;;;;;;;;;;4914505;29;20087;-89
2023/12/27 04:12:31;;;;;;;4.13;2.10;;;;;;;;;;4922666;29;20036;-90
2023/12/27 04:14:56;;;;;;;3.85;2.20;;;;;;;;;;4923799;29;20123;-89
2023/12/27 04:17:22;;;;;;;5.18;2.30;;;;;;;;;;4923794;29;20299;-89
2023/12/27 04:19:47;;;;;;;4.82;2.25;;;;;;;;;;4930819;29;20027;-90
2023/12/27 04:22:13;;;;;;;4.78;2.35;;;;;;;;;;4933343;29;20406;-89
2023/12/27 04:24:38;;;;;;;6.15;2.22;;;;;;;;;;4927500;29;20060;-90
2023/12/27 04:27:05;;;;;;;4.38;2.28;;;;;;;;;;4930141;29;20209;-89
2023/12/27 04:29:31;;;;;;;3.42;2.20;;;;;;;;;;4925557;29;20426;-89
2023/12/27 04:31:56;;;;;;;5.38;2.83;;;;;;;;;;4924709;29;20032;-89
2023/12/27 04:34:22;;;;;;;4.30;2.42;;;;;;;;;;4924718;29;20031;-89
2023/12/27 04:36:48;;;;;;;4.18;2.30;;;;;;;;;;4942234;29;20036;-89
2023/12/27 04:39:14;;;;;;;5.93;3.30;;;;;;;;;;4941257;29;20047;-89
2023/12/27 04:41:40;;;;;;;6.43;3.80;;;;;;;;;;4927077;29;20059;-89
2023/12/27 04:44:05;;;;;;;8.25;4.70;;;;;;;;;;4925034;29;20133;-90
2023/12/27 04:46:31;;;;;;;8.18;4.70;;;;;;;;;;4930032;29;20490;-89
2023/12/27 04:48:56;;;;;;;7.50;4.20;;;;;;;;;;4930531;29;20084;-89
2023/12/27 04:51:22;;;;;;;6.07;3.17;;;;;;;;;;4944756;28;20040;-90
2023/12/27 04:53:47;;;;;;;7.72;2.60;;;;;;;;;;4943492;29;20045;-89
2023/12/27 04:56:16;;;;;;;3.92;2.20;;;;;;;;;;4927913;29;20494;-89
2023/12/27 04:58:41;;;;;;;4.15;2.20;;;;;;;;;;4931157;29;20040;-89
2023/12/27 05:01:08;;;;;;;3.50;2.35;;;;;;;;;;4930159;29;20032;-89
2023/12/27 05:03:35;;;;;;;4.47;2.70;;;;;;;;;;4928061;29;20140;-89
2023/12/27 05:06:02;;;;;;;4.15;2.70;;;;;;;;;;4928937;29;20036;-90
2023/12/27 05:08:27;;;;;;;3.97;2.38;;;;;;;;;;4926630;29;20036;-89
2023/12/27 05:10:53;;;;;;;3.55;2.20;;;;;;;;;;4942632;29;20101;-89
2023/12/27 05:13:20;;;;;;;3.80;2.30;;;;;;;;;;4925383;29;20040;-89
2023/12/27 05:15:46;;;;;;;3.22;2.10;;;;;;;;;;4926072;29;20058;-90
2023/12/27 05:18:12;;;;;;;3.40;1.95;;;;;;;;;;4925164;29;20040;-89
2023/12/27 05:20:37;;;;;;;3.50;1.95;;;;;;;;;;4931721;29;20520;-88
2023/12/27 05:23:03;;;;;;;2.67;1.65;;;;;;;;;;4925644;29;20119;-88
2023/12/27 05:25:29;;;;;;;3.05;1.80;;;;;;;;;;4931523;29;20045;-88
2023/12/27 05:27:54;;;;;;;2.50;1.70;;;;;;;;;;4929172;29;20031;-88
2023/12/27 05:30:20;;;;;;;2.70;1.80;;;;;;;;;;4929046;29;20036;-87
2023/12/27 05:32:45;;;;;;;3.58;1.95;;;;;;;;;;4927530;29;20042;-89
2023/12/27 05:35:11;;;;;;;3.45;2.20;;;;;;;;;;4927001;29;20027;-89
2023/12/27 05:37:36;;;;;;;4.05;2.28;;;;;;;;;;4926279;29;20036;-89
2023/12/27 05:40:03;;;;;;;5.05;3.05;;;;;;;;;;4936198;29;20036;-89
2023/12/27 05:42:29;;;;;;;4.07;2.42;;;;;;;;;;4926714;29;20058;-89
2023/12/27 05:44:54;;;;;;;5.82;3.40;;;;;;;;;;4928200;29;20490;-89
2023/12/27 05:47:20;;;;;;;6.15;4.47;;;;;;;;;;4928310;29;20036;-89
2023/12/27 05:49:45;;;;;;;6.32;3.30;;;;;;;;;;4928516;29;20024;-90
2023/12/27 05:52:11;;;;;;;4.47;2.70;;;;;;;;;;4927648;29;20078;-87
2023/12/27 05:54:36;;;;;;;5.85;3.50;;;;;;;;;;4922632;29;20071;-89
2023/12/27 05:57:03;;;;;;;4.28;2.67;;;;;;;;;;4919717;29;20028;-89
2023/12/27 05:59:28;;;;;;;5.85;3.25;;;;;;;;;;4941207;28;20040;-87
2023/12/27 06:01:54;;;;;;;6.97;4.75;;;;;;;;;;4929086;29;20059;-90
2023/12/27 06:04:21;;;;;;;11.00;7.43;;;;;;;;;;4929146;29;20042;-89
2023/12/27 06:06:49;;;;;;;11.82;7.90;;;;;;;;;;4928895;29;20032;-89
2023/12/27 06:09:18;;;;;;;6.00;3.75;;;;;;;;;;4932026;29;20055;-89
2023/12/27 06:11:44;;;;;;;5.72;3.70;;;;;;;;;;4921107;29;20046;-89
2023/12/27 06:14:10;;;;;;;4.70;2.80;;;;;;;;;;4925601;29;20040;-88
2023/12/27 06:16:35;;;;;;;5.22;2.20;;;;;;;;;;4887241;29;1112180;-88
2023/12/27 06:19:01;;;;;;;4.35;2.42;;;;;;;;;;4924908;29;20039;-88
2023/12/27 06:21:26;;;;;;;5.50;2.08;;;;;;;;;;4923763;29;20040;-89
2023/12/27 06:23:52;;;;;;;3.50;2.03;;;;;;;;;;4925781;29;20051;-89
2023/12/27 06:26:17;;;;;;;3.95;2.17;;;;;;;;;;4926207;29;20054;-88
2023/12/27 06:28:44;;;;;;;4.68;2.40;;;;;;;;;;4926281;29;20051;-89
2023/12/27 06:31:10;;;;;;;4.63;2.22;;;;;;;;;;4918125;29;20063;-88
2023/12/27 06:33:35;;;;;;;3.38;2.03;;;;;;;;;;4924930;29;20127;-88
2023/12/27 06:36:01;;;;;;;4.07;2.40;;;;;;;;;;4926580;29;20039;-89
2023/12/27 06:38:28;;;;;;;5.18;3.15;;;;;;;;;;4927220;29;20055;-89
2023/12/27 06:40:55;;;;;;;7.82;4.32;;;;;;;;;;4927556;29;20028;-88
2023/12/27 06:43:21;;;;;;;5.13;3.30;;;;;;;;;;4923527;29;20032;-89
2023/12/27 06:45:47;;;;;;;4.05;1.90;;;;;;;;;;4923587;29;20050;-89
2023/12/27 06:48:12;;;;;;;4.70;2.40;;;;;;;;;;4922959;29;20020;-89
2023/12/27 06:50:38;;;;;;;4.15;2.20;;;;;;;;;;4921705;29;20039;-89
2023/12/27 06:53:03;;;;;;;3.47;2.10;;;;;;;;;;4930019;29;20099;-89
2023/12/27 06:55:29;;;;;;;4.15;2.10;;;;;;;;;;4925033;29;20032;-89
2023/12/27 06:57:55;;;;;;;3.45;2.20;;;;;;;;;;4917035;29;20095;-88
2023/12/27 07:00:21;;;;;;;4.38;2.10;;;;;;;;;;4923800;29;20035;-89
2023/12/27 07:02:46;;;;;;;2.83;1.90;;;;;;;;;;4939029;29;20495;-89
2023/12/27 07:05:12;;;;;;;4.25;1.77;;;;;;;;;;4923578;29;20372;-91
2023/12/27 07:07:38;;;;;;;2.95;1.60;;;;;;;;;;4922541;29;20618;-89
2023/12/27 07:10:12;;;;;;;4.10;1.88;;;;;;;;;;4926660;29;20505;-92
2023/12/27 07:12:38;;;;;;;3.17;1.80;;;;;;;;;;4926039;29;20043;-92
2023/12/27 07:15:05;;;;;;;2.70;1.65;;;;;;;;;;4903520;29;20024;-91
2023/12/27 07:17:31;;;;;;;3.53;2.00;;;;;;;;;;4923547;29;20079;-89
2023/12/27 07:19:56;;;;;;;3.58;1.80;;;;;;;;;;4924733;29;20044;-88
2023/12/27 07:22:22;;;;;;;3.28;1.83;;;;;;;;;;4925165;29;20032;-87
2023/12/27 07:24:48;;;;;;;5.10;2.20;;;;;;;;;;4921382;29;20055;-87
2023/12/27 07:27:14;;;;;;;4.35;2.53;;;;;;;;;;4925470;28;20043;-88
2023/12/27 07:29:40;;;;;;;3.90;2.10;;;;;;;;;;4939153;29;20126;-87
2023/12/27 07:32:06;;;;;;;3.47;1.77;;;;;;;;;;4909969;29;20127;-87
2023/12/27 07:34:32;;;;;;;3.65;1.70;;;;;;;;;;4921179;29;20122;-88
2023/12/27 07:36:58;;;;;;;2.90;1.70;;;;;;;;;;4920009;29;20044;-88
2023/12/27 07:39:24;;;;;;;4.00;1.50;;;;;;;;;;4930782;29;20051;-88
2023/12/27 07:41:49;;;;;;;3.38;2.10;;;;;;;;;;4924926;29;20414;-88
2023/12/27 07:44:16;;;;;;;3.70;2.40;;;;;;;;;;4922199;29;20119;-87
2023/12/27 07:46:43;;;;;;;3.45;1.60;;;;;;;;;;4924414;29;20035;-89
2023/12/27 07:49:08;;;;;;;3.08;1.70;;;;;;;;;;4921439;29;20043;-90
2023/12/27 07:51:34;;;;;;;2.55;1.70;;;;;;;;;;4917784;29;20051;-88
2023/12/27 07:53:59;;;;;;;4.97;1.70;;;;;;;;;;4920004;29;20063;-90
2023/12/27 07:56:25;;;;;;;3.65;1.50;;;;;;;;;;4920448;29;20139;-87
2023/12/27 07:58:51;;;;;;;2.75;1.40;;;;;;;;;;4920001;29;20040;-89
2023/12/27 08:01:17;;;;;;;2.80;1.60;;;;;;;;;;4922958;29;20051;-89
2023/12/27 08:03:44;;;;;;;2.17;1.45;;;;;;;;;;4929946;29;20046;-87
2023/12/27 08:06:10;;;;;;;2.35;1.55;;;;;;;;;;4923680;29;20156;-89
2023/12/27 08:08:35;;;;;;;2.83;1.88;;;;;;;;;;4935745;29;20056;-90
2023/12/27 08:11:04;;;;;;;2.97;1.80;;;;;;;;;;4924531;29;20119;-89
2023/12/27 08:13:34;;;;;;;3.63;2.33;;;;;;;;;;4924961;29;20036;-89
2023/12/27 08:16:00;;;;;;;4.30;1.88;;;;;;;;;;4926696;29;20040;-88
2023/12/27 08:18:33;;;;;;;3.33;1.67;;;;;;;;;;4926331;29;20498;-88
2023/12/27 08:21:10;;;;;;;3.22;1.70;;;;;;;;;;4925653;29;20067;-89
2023/12/27 08:23:45;;;;;;;10.40;1.65;;;;;;;;;;4928942;29;20055;-88
2023/12/27 08:26:11;;;;;;;5.85;2.30;;;;;;;;;;4926373;29;20094;-88
2023/12/27 08:28:37;;;;;;;4.15;2.50;;;;;;;;;;4930692;29;20035;-87
2023/12/27 08:31:06;;;;;;;4.22;2.50;;;;;;;;;;4929717;29;20411;-89
2023/12/27 08:33:35;;;;;;;3.40;2.08;;;;;;;;;;4926492;29;20111;-88
2023/12/27 08:36:06;;;;;;;2.80;1.60;;;;;;;;;;4931955;29;20032;-89
2023/12/27 08:38:32;;;;;;;3.67;1.60;;;;;;;;;;4930960;29;20130;-89
2023/12/27 08:41:02;;;;;;;2.92;1.50;;;;;;;;;;4917658;29;20032;-89
2023/12/27 08:43:29;;;;;;;3.63;1.50;;;;;;;;;;4925443;29;20119;-89
2023/12/27 08:45:58;;;;;;;2.85;1.42;;;;;;;;;;4927776;29;20118;-89
2023/12/27 08:48:25;;;;;;;3.28;1.50;;;;;;;;;;4925932;29;20495;-89
2023/12/27 08:50:52;;;;;;;3.28;1.55;;;;;;;;;;4927654;29;20043;-91
2023/12/27 08:53:18;;;;;;;3.05;1.63;;;;;;;;;;4913207;29;20044;-87
2023/12/27 08:55:44;;;;;;;4.13;1.70;;;;;;;;;;4929842;29;20039;-85
2023/12/27 08:58:11;;;;;;;2.72;1.55;;;;;;;;;;4927551;29;20544;-84
2023/12/27 09:00:36;;;;;;;3.58;1.77;;;;;;;;;;4928475;29;20167;-84
2023/12/27 09:03:02;;;;;;;2.85;1.52;;;;;;;;;;4924207;29;20103;-85
2023/12/27 09:05:28;;;;;;;4.57;2.03;;;;;;;;;;4929072;29;20040;-86
2023/12/27 09:07:53;;;;;;;5.57;1.70;;;;;;;;;;4930738;29;20038;-85
2023/12/27 09:10:19;;;;;;;3.70;1.70;;;;;;;;;;4926281;29;20043;-84
2023/12/27 09:12:44;;;;;;;3.10;1.98;;;;;;;;;;4942770;29;20039;-86
2023/12/27 09:15:10;;;;;;;5.55;1.75;;;;;;;;;;4927833;29;20042;-86
2023/12/27 09:17:36;;;;;;;2.65;1.70;;;;;;;;;;4924708;29;20550;-85
2023/12/27 09:20:03;;;;;;;2.45;1.73;;;;;;;;;;4923120;29;20036;-85
2023/12/27 09:22:29;;;;;;;2.45;1.60;;;;;;;;;;4934142;28;20096;-88
2023/12/27 09:24:54;;;;;;;5.25;2.40;;;;;;;;;;4933409;29;20048;-88
2023/12/27 09:27:20;;;;;;;3.25;1.88;;;;;;;;;;4934543;29;20043;-87
2023/12/27 09:29:45;;;;;;;3.55;1.67;;;;;;;;;;4935623;29;20051;-88
2023/12/27 09:32:11;;;;;;;4.85;1.70;;;;;;;;;;4927977;29;20483;-89
2023/12/27 09:34:36;;;;;;;2.90;1.60;;;;;;;;;;4929368;29;20051;-89
2023/12/27 09:37:05;;;;;;;4.20;2.00;;;;;;;;;;4925076;29;20088;-89
2023/12/27 09:39:30;;;;;;;2.85;1.52;;;;;;;;;;4943989;29;20406;-89
2023/12/27 09:41:59;;;;;;;3.42;1.70;;;;;;;;;;4931554;29;20486;-89
2023/12/27 09:44:24;;;;;;;3.22;1.40;;;;;;;;;;4932163;29;20127;-89
2023/12/27 09:46:50;;;;;;;3.45;1.60;;;;;;;;;;4928848;29;20071;-89
2023/12/27 09:49:23;;;;;;;3.33;1.98;;;;;;;;;;4923637;29;20036;-91
2023/12/27 09:51:48;;;;;;;4.87;2.00;;;;;;;;;;4929645;29;20075;-89
2023/12/27 09:54:17;;;;;;;5.05;2.33;;;;;;;;;;4933129;29;20288;-87
2023/12/27 09:56:44;;;;;;;10.63;3.38;;;;;;;;;;4927324;29;20067;-88
2023/12/27 09:59:17;;;;;;;9.30;3.60;;;;;;;;;;4928636;29;20039;-87
2023/12/27 10:01:46;;;;;;;7.13;3.15;;;;;;;;;;4931182;29;20032;-88
2023/12/27 10:04:30;;;;;;;3.60;1.92;;;;;;;;;;4931338;29;20051;-88
2023/12/27 10:06:57;;;;;;;;;;;;;;;;;;4927743;29;20124;-86
2023/12/27 10:09:23;;;;;;;18.75;6.72;;;;;;;;;;4927621;29;19953;-87
2023/12/27 10:11:49;;;;;;;24.98;9.02;;;;;;;;;;4926602;29;20080;-88
2023/12/27 10:14:16;;;;;;;50.22;14.85;;;;;;;;;;4926620;29;20028;-88
2023/12/27 10:16:42;;;;;;;64.78;20.75;;;;;;;;;;4941660;29;20126;-86
2023/12/27 10:19:07;;;;;;;17.02;7.00;;;;;;;;;;4930547;29;20070;-87
2023/12/27 10:21:43;;;;;;;5.63;1.70;;;;;;;;;;4942612;29;20033;-87
2023/12/27 10:24:12;;;;;;;2.97;1.55;;;;;;;;;;4925483;29;20039;-87
2023/12/27 10:26:37;;;;;;;5.53;1.80;;;;;;;;;;4923147;29;20036;-87
2023/12/27 10:29:04;;;;;;;12.70;5.80;;;;;;;;;;4923067;29;20039;-87
2023/12/27 10:31:30;;;;;;;10.13;4.65;;;;;;;;;;4923453;29;20040;-87
2023/12/27 10:33:57;;;;;;;7.53;4.20;;;;;;;;;;4922098;29;20166;-86
2023/12/27 10:36:23;;;;;;;3.40;1.90;;;;;;;;;;4929915;29;20040;-87
2023/12/27 10:38:49;;;;;;;6.45;3.72;;;;;;;;;;4926475;29;20442;-87
2023/12/27 10:41:15;;;;;;;7.55;3.88;;;;;;;;;;4925711;29;20653;-87
2023/12/27 10:43:42;;;;;;;13.70;5.95;;;;;;;;;;4924841;29;20044;-86
2023/12/27 10:46:11;;;;;;;134.90;57.90;;;;;;;;;;4932053;29;20099;-89
2023/12/27 10:48:40;;;;;;;13.63;6.78;;;;;;;;;;4934618;29;20111;-88
2023/12/27 10:51:07;;;;;;;15.85;9.27;;;;;;;;;;4930909;29;20032;-90
2023/12/27 10:53:35;;;;;;;5.00;1.40;;;;;;;;;;4936442;29;20032;-87
2023/12/27 10:56:02;;;;;;;3.80;1.20;;;;;;;;;;4932360;29;20050;-87
2023/12/27 10:58:31;;;;;;;90.70;41.33;;;;;;;;;;4926855;28;20129;-85
2023/12/27 11:00:58;;;;;;;4.75;1.85;;;;;;;;;;4926752;29;20087;-88
2023/12/27 11:03:25;;;;;;;2.33;1.45;;;;;;;;;;4919179;29;20625;-89
2023/12/27 11:05:52;;;;;;;1.70;1.10;;;;;;;;;;4926264;29;20055;-89
2023/12/27 11:08:19;;;;;;;3.55;1.25;;;;;;;;;;4926301;29;20040;-87
2023/12/27 11:10:45;;;;;;;1.92;1.20;;;;;;;;;;4928050;29;20035;-86
2023/12/27 11:13:11;;;;;;;2.67;1.30;;;;;;;;;;4942128;29;20490;-87
2023/12/27 11:15:39;;;;;;;2.35;1.13;;;;;;;;;;4922125;29;20040;-86
2023/12/27 11:18:08;;;;;;;2.70;1.25;;;;;;;;;;4938985;29;20032;-86
2023/12/27 11:20:34;;;;;;;2.15;1.30;;;;;;;;;;4926743;29;20122;-86
2023/12/27 11:23:00;;;;;;;3.08;1.13;;;;;;;;;;4926140;29;20068;-86
2023/12/27 11:25:25;;;;;;;2.30;1.40;;;;;;;;;;4927893;29;20466;-88
2023/12/27 11:27:52;;;;;;;2.03;1.20;;;;;;;;;;4925636;29;20063;-90
2023/12/27 11:30:21;;;;;;;10.98;2.80;;;;;;;;;;4926234;29;20036;-87
2023/12/27 11:32:46;;;;;;;2.17;1.20;;;;;;;;;;4924793;29;20028;-88
2023/12/27 11:35:24;;;;;;;1.42;1.10;;;;;;;;;;4927528;29;20379;-88
2023/12/27 11:37:52;;;;;;;2.33;1.20;;;;;;;;;;4921827;29;20044;-88
2023/12/27 11:40:34;;;;;;;3.10;1.10;;;;;;;;;;4924590;29;20031;-89
2023/12/27 11:43:02;;;;;;;1.58;1.05;;;;;;;;;;4924511;29;20048;-86
2023/12/27 11:45:39;;;;;;;3.08;1.77;;;;;;;;;;4922793;29;20150;-87
2023/12/27 11:48:07;;;;;;;5.60;2.20;;;;;;;;;;4932464;29;20032;-88
2023/12/27 11:50:33;;;;;;;4.70;2.85;;;;;;;;;;4926125;29;20066;-89
2023/12/27 11:52:59;;;;;;;2.17;1.40;;;;;;;;;;4926904;29;20591;-86
2023/12/27 11:55:31;;;;;;;17.00;11.88;;;;;;;;;;4933296;29;20039;-86
2023/12/27 11:57:57;;;;;;;2.80;1.80;;;;;;;;;;4926133;29;20035;-87
2023/12/27 12:00:25;;;;;;;3.63;1.00;;;;;;;;;;4925146;29;20032;-86
2023/12/27 12:02:57;;;;;;;2.22;1.10;;;;;;;;;;4938655;29;20521;-89
2023/12/27 12:05:48;;;;;;;1.80;0.80;;;;;;;;;;4926529;29;20040;-89
2023/12/27 12:08:30;;;;;;;1.70;1.13;;;;;;;;;;4920800;29;20040;-88
2023/12/27 12:11:12;;;;;;;1.63;1.10;;;;;;;;;;4929700;29;20494;-88
2023/12/27 12:13:39;;;;;;;3.70;1.00;;;;;;;;;;4921267;29;20060;-89
2023/12/27 12:16:06;;;;;;;3.33;1.20;;;;;;;;;;4922605;29;20050;-88
2023/12/27 12:18:34;;;;;;;1.38;1.00;;;;;;;;;;4905463;29;20036;-88
2023/12/27 12:20:59;;;;;;;4.75;0.90;;;;;;;;;;4923238;29;20722;-89
2023/12/27 12:23:29;;;;;;;2.60;1.33;;;;;;;;;;4911046;29;20044;-86
2023/12/27 12:26:00;;;;;;;3.08;0.95;;;;;;;;;;4924992;29;20051;-86
2023/12/27 12:28:29;;;;;;;3.00;1.00;;;;;;;;;;4928976;29;20059;-82
2023/12/27 12:30:59;;;;;;;2.15;1.00;;;;;;;;;;4925166;29;20657;-85
2023/12/27 12:33:25;;;;;;;1.92;0.95;;;;;;;;;;4926742;29;20032;-86
2023/12/27 12:35:52;;;;;;;3.65;1.20;;;;;;;;;;4925999;29;20039;-87
2023/12/27 12:38:20;;;;;;;2.45;1.27;;;;;;;;;;4924783;29;20486;-87
2023/12/27 12:40:47;;;;;;;3.15;1.40;;;;;;;;;;4924186;29;20406;-88
2023/12/27 12:43:16;;;;;;;2.97;1.30;;;;;;;;;;4924943;29;20383;-88
2023/12/27 12:45:43;;;;;;;2.58;1.30;;;;;;;;;;4924841;29;20035;-86
2023/12/27 12:48:09;;;;;;;2.75;1.30;;;;;;;;;;4923700;29;20051;-87
2023/12/27 12:50:34;;;;;;;2.30;1.27;;;;;;;;;;4926143;29;20410;-86
2023/12/27 12:53:15;;;;;;;2.20;1.30;;;;;;;;;;4915505;29;20039;-85
2023/12/27 12:55:41;;;;;;;2.75;1.20;;;;;;;;;;4916497;29;20458;-85
2023/12/27 12:58:08;;;;;;;2.47;1.20;;;;;;;;;;4919389;29;20398;-85
2023/12/27 13:00:34;;;;;;;3.92;1.08;;;;;;;;;;4923497;29;20032;-86
2023/12/27 13:02:59;;;;;;;2.10;1.20;;;;;;;;;;4941129;28;20111;-87
2023/12/27 13:05:26;;;;;;;3.22;1.77;;;;;;;;;;4922660;29;20037;-84
2023/12/27 13:07:52;;;;;;;2.22;1.38;;;;;;;;;;4922550;29;20042;-87
2023/12/27 13:10:19;;;;;;;3.20;1.40;;;;;;;;;;4927784;29;20414;-85
2023/12/27 13:12:45;;;;;;;2.38;1.33;;;;;;;;;;4924758;29;20465;-85
2023/12/27 13:15:11;;;;;;;2.42;1.13;;;;;;;;;;4918702;29;20063;-85
2023/12/27 13:17:36;;;;;;;2.10;1.15;;;;;;;;;;4921290;29;20119;-85
2023/12/27 13:20:04;;;;;;;1.42;1.10;;;;;;;;;;4924775;29;20115;-86
2023/12/27 13:22:30;;;;;;;3.33;1.30;;;;;;;;;;4927527;29;20043;-85
2023/12/27 13:24:55;;;;;;;2.70;1.70;;;;;;;;;;4925942;29;20036;-84
2023/12/27 13:27:21;;;;;;;3.92;1.40;;;;;;;;;;4926683;29;20044;-86
2023/12/27 13:29:46;;;;;;;2.75;1.00;;;;;;;;;;4920396;29;20047;-89
2023/12/27 13:32:12;;;;;;;1.80;1.13;;;;;;;;;;4928916;29;20181;-85
2023/12/27 13:34:37;;;;;;;1.10;0.80;;;;;;;;;;4919679;29;20032;-85
2023/12/27 13:37:03;;;;;;;1.95;1.00;;;;;;;;;;4920319;29;20097;-87
2023/12/27 13:39:29;;;;;;;2.45;1.10;;;;;;;;;;4924184;29;20521;-86
2023/12/27 13:41:55;;;;;;;2.90;1.10;;;;;;;;;;4927043;29;20108;-87
2023/12/27 13:44:21;;;;;;;2.35;1.20;;;;;;;;;;4922565;29;20091;-85
2023/12/27 13:46:47;;;;;;;2.58;1.40;;;;;;;;;;4925800;29;20040;-85
2023/12/27 13:49:13;;;;;;;8.20;2.08;;;;;;;;;;4921993;29;20040;-85
2023/12/27 13:51:38;;;;;;;6.78;3.72;;;;;;;;;;4930084;29;20031;-86
2023/12/27 13:54:07;;;;;;;7.13;4.57;;;;;;;;;;4924773;29;20486;-85
2023/12/27 13:56:33;;;;;;;7.55;4.97;;;;;;;;;;4922024;29;20092;-85
2023/12/27 13:58:58;;;;;;;3.97;2.30;;;;;;;;;;4922449;29;20511;-88
2023/12/27 14:01:23;;;;;;;2.67;1.80;;;;;;;;;;4919902;29;20063;-89
2023/12/27 14:03:49;;;;;;;3.30;2.40;;;;;;;;;;4926859;29;20047;-85
2023/12/27 14:06:14;;;;;;;2.40;1.30;;;;;;;;;;4929770;29;20043;-88
2023/12/27 14:08:41;;;;;;;4.75;1.60;;;;;;;;;;4929563;29;20412;-87
2023/12/27 14:11:06;;;;;;;3.03;1.73;;;;;;;;;;4924140;29;20036;-87
2023/12/27 14:13:32;;;;;;;3.22;1.50;;;;;;;;;;4922231;29;20043;-87
2023/12/27 14:15:59;;;;;;;3.72;2.00;;;;;;;;;;4924727;29;20100;-88
2023/12/27 14:18:26;;;;;;;2.75;1.50;;;;;;;;;;4924986;29;20071;-88
2023/12/27 14:20:51;;;;;;;2.75;1.60;;;;;;;;;;4926221;29;20039;-86
2023/12/27 14:23:17;;;;;;;3.08;1.70;;;;;;;;;;4927973;29;20036;-87
2023/12/27 14:25:43;;;;;;;3.45;1.58;;;;;;;;;;4931111;29;20082;-87
2023/12/27 14:28:08;;;;;;;2.38;1.40;;;;;;;;;;4927415;29;20055;-87
2023/12/27 14:30:34;;;;;;;2.90;1.52;;;;;;;;;;4922419;29;20104;-85
2023/12/27 14:32:59;;;;;;;2.05;1.20;;;;;;;;;;4923201;29;20043;-87
2023/12/27 14:35:25;;;;;;;1.90;1.10;;;;;;;;;;4919367;29;20032;-87
2023/12/27 14:37:50;;;;;;;1.95;1.20;;;;;;;;;;4924503;29;20043;-88
2023/12/27 14:40:16;;;;;;;2.55;1.40;;;;;;;;;;4923954;29;20229;-85